createdAt,value
2023-01-27T00:01:38.996Z,46.30
2023-01-27T00:04:07.597Z,48.80
2023-01-27T00:06:36.231Z,44.70
2023-01-27T00:09:06.395Z,47.20
2023-01-27T00:11:53.693Z,46.40
2023-01-27T00:14:21.745Z,49.30
2023-01-27T00:16:50.040Z,58.00
2023-01-27T00:19:19.975Z,53.80
2023-01-27T00:22:07.004Z,52.20
2023-01-27T00:24:38.079Z,44.40
2023-01-27T00:27:09.120Z,47.50
2023-01-27T00:29:40.194Z,46.70
2023-01-27T00:32:27.043Z,46.40
2023-01-27T00:34:55.088Z,47.90
2023-01-27T00:37:24.175Z,44.90
2023-01-27T00:39:52.079Z,45.30
2023-01-27T00:42:20.245Z,42.80
2023-01-27T00:45:06.974Z,46.40
2023-01-27T00:47:35.578Z,43.00
2023-01-27T00:50:04.508Z,39.80
2023-01-27T00:52:32.506Z,35.90
2023-01-27T00:55:00.523Z,35.80
2023-01-27T00:57:29.315Z,37.00
2023-01-27T00:59:59.524Z,36.90
2023-01-27T01:02:27.868Z,35.80
2023-01-27T01:04:56.093Z,37.20
2023-01-27T01:07:25.149Z,35.60
2023-01-27T01:09:53.106Z,37.40
2023-01-27T01:12:22.674Z,35.50
2023-01-27T01:14:51.393Z,39.50
2023-01-27T01:17:19.779Z,38.10
2023-01-27T01:19:47.937Z,37.20
2023-01-27T01:22:15.891Z,36.00
2023-01-27T01:24:43.867Z,38.30
2023-01-27T01:27:14.141Z,38.80
2023-01-27T01:29:42.108Z,34.20
2023-01-27T01:32:11.646Z,38.30
2023-01-27T01:34:39.629Z,35.10
2023-01-27T01:37:07.726Z,33.50
2023-01-27T01:39:37.823Z,37.00
2023-01-27T01:42:07.265Z,36.70
2023-01-27T01:44:35.267Z,33.80
2023-01-27T01:47:03.155Z,34.10
2023-01-27T01:49:36.631Z,31.90
2023-01-27T01:52:07.888Z,36.30
2023-01-27T01:54:45.008Z,37.10
2023-01-27T01:57:17.904Z,34.60
2023-01-27T01:59:51.871Z,30.10
2023-01-27T02:02:22.253Z,33.70
2023-01-27T02:04:55.081Z,36.60
2023-01-27T02:07:45.065Z,34.50
2023-01-27T02:10:15.787Z,37.30
2023-01-27T02:12:43.896Z,34.50
2023-01-27T02:15:12.489Z,36.80
2023-01-27T02:17:42.141Z,36.10
2023-01-27T02:20:24.218Z,33.20
2023-01-27T02:23:03.717Z,35.60
2023-01-27T02:25:34.659Z,36.70
2023-01-27T02:28:07.431Z,38.40
2023-01-27T02:30:35.572Z,33.60
2023-01-27T02:33:14.963Z,36.10
2023-01-27T02:35:47.671Z,35.90
2023-01-27T02:38:15.572Z,38.80
2023-01-27T02:40:43.466Z,33.30
2023-01-27T02:43:14.259Z,35.90
2023-01-27T02:45:42.896Z,31.30
2023-01-27T02:48:10.868Z,36.80
2023-01-27T02:50:38.818Z,34.20
2023-01-27T02:53:07.462Z,36.70
2023-01-27T02:55:37.407Z,34.40
2023-01-27T02:58:06.318Z,31.70
2023-01-27T03:00:43.995Z,38.00
2023-01-27T03:03:13.759Z,32.10
2023-01-27T03:05:41.753Z,35.10
2023-01-27T03:08:10.062Z,38.50
2023-01-27T03:10:38.302Z,34.80
2023-01-27T03:13:06.359Z,35.50
2023-01-27T03:15:53.344Z,35.10
2023-01-27T03:18:22.685Z,35.80
2023-01-27T03:20:50.789Z,33.50
2023-01-27T03:23:19.554Z,34.40
2023-01-27T03:25:50.695Z,36.90
2023-01-27T03:28:19.104Z,33.90
2023-01-27T03:31:19.649Z,32.80
2023-01-27T03:33:58.276Z,34.70
2023-01-27T03:36:52.246Z,32.80
2023-01-27T03:39:40.185Z,37.90
2023-01-27T03:42:27.046Z,34.90
2023-01-27T03:45:15.223Z,35.30
2023-01-27T03:47:43.352Z,35.10
2023-01-27T03:50:13.910Z,37.70
2023-01-27T03:53:02.996Z,35.40
2023-01-27T03:55:31.810Z,35.50
2023-01-27T03:58:14.596Z,35.20
2023-01-27T04:00:43.215Z,37.70
2023-01-27T04:03:29.843Z,40.30
2023-01-27T04:06:16.764Z,33.10
2023-01-27T04:08:44.855Z,38.80
2023-01-27T04:11:32.056Z,41.00
2023-01-27T04:14:02.009Z,36.40
2023-01-27T04:16:30.300Z,39.70
2023-01-27T04:18:59.488Z,39.60
2023-01-27T04:21:29.987Z,36.90
2023-01-27T04:23:57.972Z,41.20
2023-01-27T04:26:26.251Z,38.20
2023-01-27T04:28:54.310Z,44.50
2023-01-27T04:31:22.459Z,41.50
2023-01-27T04:33:50.991Z,39.10
2023-01-27T04:36:21.667Z,41.50
2023-01-27T04:38:49.770Z,42.50
2023-01-27T04:41:17.727Z,41.90
2023-01-27T04:43:45.853Z,45.10
2023-01-27T04:46:13.816Z,38.30
2023-01-27T04:48:41.748Z,45.50
2023-01-27T04:51:09.623Z,44.20
2023-01-27T04:53:37.700Z,41.80
2023-01-27T04:56:14.868Z,40.80
2023-01-27T04:58:42.843Z,40.90
2023-01-27T05:01:10.767Z,44.20
2023-01-27T05:03:39.570Z,42.80
2023-01-27T05:06:08.732Z,49.80
2023-01-27T05:08:36.824Z,41.90
2023-01-27T05:11:05.247Z,43.90
2023-01-27T05:13:33.644Z,46.70
2023-01-27T05:16:16.376Z,44.20
2023-01-27T05:18:44.790Z,42.20
2023-01-27T05:21:16.503Z,44.50
2023-01-27T05:23:45.029Z,51.60
2023-01-27T05:26:21.138Z,41.10
2023-01-27T05:28:49.801Z,43.50
2023-01-27T05:31:22.971Z,41.70
2023-01-27T05:33:52.633Z,45.80
2023-01-27T05:36:22.254Z,47.90
2023-01-27T05:38:50.388Z,43.20
2023-01-27T05:41:19.060Z,42.70
2023-01-27T05:43:51.132Z,45.60
2023-01-27T05:46:21.128Z,43.20
2023-01-27T05:48:50.945Z,45.10
2023-01-27T05:51:20.648Z,47.20
2023-01-27T05:53:48.950Z,43.60
2023-01-27T05:56:18.693Z,42.90
2023-01-27T05:58:49.048Z,45.60
2023-01-27T06:01:24.560Z,43.90
2023-01-27T06:03:52.577Z,40.70
2023-01-27T06:06:23.800Z,42.80
2023-01-27T06:08:52.161Z,42.40
2023-01-27T06:11:20.647Z,42.90
2023-01-27T06:13:49.855Z,40.60
2023-01-27T06:16:19.326Z,43.00
2023-01-27T06:18:47.775Z,47.70
2023-01-27T06:21:16.229Z,40.70
2023-01-27T06:23:44.422Z,41.90
2023-01-27T06:26:16.360Z,44.40
2023-01-27T06:28:44.562Z,44.30
2023-01-27T06:31:14.684Z,45.80
2023-01-27T06:33:42.967Z,41.80
2023-01-27T06:36:12.863Z,40.10
2023-01-27T06:38:40.981Z,39.60
2023-01-27T06:41:09.032Z,43.60
2023-01-27T06:43:40.940Z,46.90
2023-01-27T06:46:09.073Z,49.10
2023-01-27T06:48:38.138Z,51.20
2023-01-27T06:51:06.674Z,55.40
2023-01-27T06:53:37.476Z,46.30
2023-01-27T06:56:06.221Z,54.20
2023-01-27T06:58:36.845Z,48.70
2023-01-27T07:01:06.022Z,46.00
2023-01-27T07:06:01.149Z,46.20
2023-01-27T07:08:29.577Z,44.30
2023-01-27T07:10:57.806Z,50.90
2023-01-27T07:13:26.227Z,48.00
2023-01-27T07:15:56.341Z,53.30
2023-01-27T07:18:24.425Z,55.80
2023-01-27T07:20:52.895Z,52.40
2023-01-27T07:23:21.226Z,51.30
2023-01-27T07:25:49.659Z,52.10
2023-01-27T07:28:20.572Z,53.00
2023-01-27T07:30:48.802Z,55.30
2023-01-27T07:33:17.740Z,58.00
2023-01-27T07:35:48.377Z,53.50
2023-01-27T07:38:16.529Z,54.50
2023-01-27T07:40:44.504Z,57.90
2023-01-27T07:43:12.669Z,56.60
2023-01-27T07:45:41.779Z,57.10
2023-01-27T07:48:10.002Z,57.90
2023-01-27T12:31:55.430Z,117.00
2023-01-27T12:34:26.605Z,147.50
2023-01-27T12:36:55.073Z,134.60
2023-01-27T12:39:29.858Z,131.00
2023-01-27T12:41:58.160Z,120.60
2023-01-27T12:44:28.973Z,125.20
2023-01-27T12:47:00.191Z,130.90
2023-01-27T12:49:36.222Z,121.50
2023-01-27T12:52:05.278Z,142.50
2023-01-27T12:54:35.501Z,130.40
2023-01-27T12:57:12.694Z,133.10
2023-01-27T12:59:55.384Z,131.00
2023-01-27T13:02:25.279Z,128.00
2023-01-27T13:05:03.606Z,135.40
2023-01-27T13:07:51.649Z,129.20
2023-01-27T13:10:23.869Z,138.60
2023-01-27T13:12:56.442Z,124.30
2023-01-27T13:15:26.137Z,116.90
2023-01-27T13:18:11.717Z,117.80
2023-01-27T13:20:48.608Z,118.60
2023-01-27T13:23:35.174Z,111.90
2023-01-27T13:26:13.119Z,110.00
2023-01-27T13:28:54.230Z,104.40
2023-01-27T13:31:33.320Z,122.40
2023-01-27T13:34:05.780Z,117.30
2023-01-27T13:36:54.072Z,110.80
2023-01-27T13:39:40.766Z,112.60
2023-01-27T13:42:42.565Z,101.40
2023-01-27T13:45:29.651Z,94.70
2023-01-27T13:48:00.245Z,98.50
2023-01-27T13:50:52.951Z,103.40
2023-01-27T13:53:20.967Z,96.20
2023-01-27T13:56:14.602Z,97.80
2023-01-27T13:58:58.421Z,97.20
2023-01-27T14:01:45.223Z,92.00
2023-01-27T14:04:35.582Z,94.70
2023-01-27T14:07:25.763Z,88.10
2023-01-27T14:10:17.202Z,80.90
2023-01-27T14:12:47.376Z,96.80
2023-01-27T14:15:26.380Z,80.20
2023-01-27T14:18:24.576Z,77.90
2023-01-27T14:21:00.310Z,78.30
2023-01-27T14:23:43.086Z,77.00
2023-01-27T14:26:51.530Z,80.20
2023-01-27T14:29:31.197Z,80.00
2023-01-27T14:32:29.876Z,76.30
2023-01-27T14:35:36.353Z,72.70
2023-01-27T14:38:10.674Z,74.80
2023-01-27T14:41:12.782Z,73.40
2023-01-27T14:44:16.136Z,70.70
2023-01-27T14:46:50.471Z,75.20
2023-01-27T14:49:40.761Z,77.30
2023-01-27T14:52:31.905Z,66.80
2023-01-27T14:55:37.725Z,70.70
2023-01-27T14:58:08.934Z,63.30
2023-01-27T15:00:56.174Z,63.80
2023-01-27T15:03:50.453Z,71.00
2023-01-27T15:06:29.706Z,68.80
2023-01-27T15:09:19.687Z,65.50
2023-01-27T15:12:06.231Z,65.20
2023-01-27T15:14:49.411Z,65.50
2023-01-27T15:17:21.420Z,62.00
2023-01-27T15:20:01.826Z,61.30
2023-01-27T15:22:37.029Z,60.40
2023-01-27T15:25:31.001Z,66.20
2023-01-27T15:28:01.724Z,63.00
2023-01-27T15:30:33.308Z,57.20
2023-01-27T15:33:01.585Z,60.40
2023-01-27T15:35:38.075Z,56.50
2023-01-27T15:38:08.316Z,54.20
2023-01-27T15:41:11.971Z,55.20
2023-01-27T15:43:44.173Z,63.50
2023-01-27T15:46:38.924Z,64.30
2023-01-27T15:49:15.382Z,55.90
2023-01-27T20:00:28.239Z,48.40
2023-01-27T20:02:56.840Z,55.00
2023-01-27T20:05:26.140Z,49.20
2023-01-27T20:07:55.593Z,50.90
2023-01-27T20:10:28.144Z,49.80
2023-01-27T20:12:57.902Z,44.50
2023-01-27T20:15:27.435Z,49.40
2023-01-27T20:17:55.619Z,53.40
2023-01-27T20:20:24.118Z,57.40
2023-01-27T20:22:53.074Z,54.30
2023-01-27T20:25:24.060Z,49.70
2023-01-27T20:27:54.700Z,48.60
2023-01-27T20:30:27.554Z,48.50
2023-01-27T20:32:56.482Z,47.30
2023-01-27T20:35:24.931Z,49.30
2023-01-27T20:37:53.191Z,47.00
2023-01-27T20:40:23.171Z,47.70
2023-01-27T20:42:51.484Z,64.10
2023-01-27T20:45:19.545Z,62.70
2023-01-27T20:47:51.321Z,67.80
2023-01-27T20:50:20.017Z,60.00
2023-01-27T20:52:51.181Z,60.50
2023-01-27T20:55:21.716Z,57.00
2023-01-27T20:57:50.731Z,59.00
2023-01-27T21:00:20.591Z,63.50
2023-01-27T21:02:48.938Z,60.60
2023-01-27T21:05:19.271Z,48.20
2023-01-27T21:07:47.478Z,54.20
2023-01-27T21:10:18.869Z,49.80
2023-01-27T21:13:06.607Z,55.80
2023-01-27T21:15:35.677Z,48.00
2023-01-27T21:18:03.899Z,51.20
2023-01-27T21:20:31.877Z,46.40
2023-01-27T21:22:59.817Z,49.00
2023-01-27T21:25:29.603Z,47.70
2023-01-27T21:27:59.924Z,47.90
2023-01-27T21:30:30.105Z,52.30
2023-01-27T21:32:58.075Z,48.80
2023-01-27T21:35:26.418Z,48.70
2023-01-27T21:37:54.369Z,56.70
2023-01-27T21:40:22.324Z,55.40
2023-01-27T21:43:09.136Z,58.80
2023-01-27T21:45:37.032Z,57.10
2023-01-27T21:48:05.278Z,56.50
2023-01-27T21:50:33.946Z,50.10
2023-01-27T21:53:07.433Z,52.60
2023-01-27T21:55:35.467Z,47.90
2023-01-27T21:58:03.431Z,50.00
2023-01-27T22:00:48.979Z,47.40
2023-01-27T22:03:17.309Z,45.50
2023-01-27T22:05:45.792Z,51.10
2023-01-27T22:08:15.828Z,47.10
2023-01-27T22:10:43.906Z,46.00
2023-01-27T22:13:12.004Z,47.80
2023-01-27T22:15:40.821Z,44.70
2023-01-27T22:18:09.113Z,45.30
2023-01-27T22:20:37.219Z,44.70
2023-01-27T22:23:05.486Z,44.00
2023-01-27T22:25:36.059Z,48.90
2023-01-27T22:28:04.117Z,47.80
2023-01-27T22:30:32.755Z,52.10
2023-01-27T22:33:05.510Z,53.40
2023-01-27T22:35:33.739Z,51.80
2023-01-27T22:38:02.638Z,52.90
2023-01-27T22:40:32.695Z,49.90
2023-01-27T22:43:00.694Z,49.40
2023-01-27T22:45:28.751Z,52.80
2023-01-27T22:47:57.754Z,47.70
2023-01-27T22:50:26.026Z,43.40
2023-01-27T22:52:54.227Z,45.70
2023-01-27T22:55:22.351Z,46.80
2023-01-27T22:57:51.138Z,42.80
2023-01-27T23:00:19.759Z,50.20
2023-01-27T23:02:47.962Z,44.30
2023-01-27T23:05:17.729Z,41.40
2023-01-27T23:07:47.531Z,44.70
2023-01-27T23:10:16.749Z,46.00
2023-01-27T23:12:44.721Z,43.80
2023-01-27T23:15:13.224Z,43.50
2023-01-27T23:17:41.916Z,42.30
2023-01-27T23:20:10.883Z,46.90
2023-01-27T23:22:39.730Z,44.20
2023-01-27T23:25:08.417Z,44.00
2023-01-27T23:27:36.929Z,46.20
2023-01-27T23:30:09.133Z,44.10
2023-01-27T23:32:40.304Z,44.90
2023-01-27T23:35:09.044Z,44.60
2023-01-27T23:37:37.356Z,42.50
2023-01-27T23:40:07.702Z,40.10
2023-01-27T23:42:35.988Z,38.60
2023-01-27T23:45:04.588Z,40.00
2023-01-27T23:47:32.730Z,40.30
2023-01-27T23:50:00.765Z,44.40
2023-01-27T23:52:29.960Z,40.60
2023-01-27T23:54:58.078Z,39.00
